< < Back
Terminal Aerodrome Forecast


Current Version              Previous Versions:   1  2  3  4  5  6  7  8  9  

Terminal Aerodrome Forecast

886
FTUS42 KCAE 191100 RRA
TAFCAE
TAF
KCAE 191142Z 1912/2012 03012G20KT 6SM -RA BR BKN007 OVC015
      TEMPO 1912/1916 4SM -DZ BR BKN015
     FM200500 04012G23KT P6SM SCT007 OVC015=

Latest METAR

477
SAUS80 KWBC 192000 CCA
MTRCAE
METAR KCAE 191956Z 03009G17KT 2 1/2SM R11/4500VP6000FT -RA BR SCT008
OVC015 14/13 A3005 RMK AO2 RAB03 SLP174 P0001 T01390128


USA.gov is the U.S. government's official web portal to all federal, state and local government web resources and services.